createdAt,value
2023-05-05T00:01:33.209Z,13.70
2023-05-05T00:04:00.210Z,13.60
2023-05-05T00:06:28.442Z,13.60
2023-05-05T00:08:56.307Z,13.50
2023-05-05T00:11:23.271Z,13.50
2023-05-05T00:13:50.082Z,13.50
2023-05-05T00:16:17.581Z,13.50
2023-05-05T00:18:44.846Z,13.50
2023-05-05T00:21:11.638Z,13.50
2023-05-05T00:23:38.466Z,13.50
2023-05-05T00:26:05.509Z,13.40
2023-05-05T00:28:32.247Z,13.40
2023-05-05T00:30:59.057Z,13.40
2023-05-05T00:33:25.927Z,13.40
2023-05-05T00:35:52.731Z,13.40
2023-05-05T00:38:19.516Z,13.30
2023-05-05T00:40:46.395Z,13.30
2023-05-05T00:43:13.210Z,13.20
2023-05-05T00:45:42.802Z,13.20
2023-05-05T00:48:09.791Z,13.10
2023-05-05T00:50:38.029Z,13.00
2023-05-05T00:53:06.613Z,13.00
2023-05-05T00:55:34.593Z,12.90
2023-05-05T00:58:04.462Z,12.90
2023-05-05T01:00:31.678Z,12.90
2023-05-05T01:02:59.071Z,12.90
2023-05-05T01:05:28.018Z,12.90
2023-05-05T01:08:10.623Z,12.90
2023-05-05T01:10:55.094Z,12.90
2023-05-05T01:13:34.237Z,12.90
2023-05-05T01:16:20.892Z,12.80
2023-05-05T01:18:51.250Z,12.70
2023-05-05T01:21:32.663Z,12.70
2023-05-05T01:24:18.120Z,12.60
2023-05-05T01:27:01.397Z,12.50
2023-05-05T01:29:56.925Z,12.60
2023-05-05T01:32:28.433Z,12.50
2023-05-05T01:35:01.287Z,12.50
2023-05-05T01:37:37.102Z,12.50
2023-05-05T01:40:08.317Z,12.40
2023-05-05T01:42:38.051Z,12.40
2023-05-05T01:45:08.265Z,12.40
2023-05-05T01:47:39.225Z,12.50
2023-05-05T01:50:08.507Z,12.50
2023-05-05T01:52:37.600Z,12.50
2023-05-05T01:55:06.551Z,12.50
2023-05-05T01:57:33.667Z,12.50
2023-05-05T02:00:06.021Z,12.50
2023-05-05T02:02:33.689Z,12.40
2023-05-05T02:05:01.888Z,12.50
2023-05-05T02:07:30.513Z,12.40
2023-05-05T02:09:58.340Z,12.40
2023-05-05T02:12:26.573Z,12.40
2023-05-05T02:14:54.046Z,12.30
2023-05-05T02:17:23.318Z,12.30
2023-05-05T02:19:52.557Z,12.30
2023-05-05T02:22:19.656Z,12.30
2023-05-05T02:24:46.551Z,12.20
2023-05-05T02:27:18.602Z,12.20
2023-05-05T02:29:50.600Z,12.20
2023-05-05T02:32:23.756Z,12.20
2023-05-05T02:34:52.186Z,12.00
2023-05-05T02:37:24.027Z,12.20
2023-05-05T02:39:59.141Z,12.20
2023-05-05T02:42:32.089Z,12.10
2023-05-05T02:45:01.878Z,12.20
2023-05-05T02:47:36.197Z,12.20
2023-05-05T02:50:04.322Z,12.20
2023-05-05T02:52:32.489Z,12.20
2023-05-05T02:55:00.306Z,12.10
2023-05-05T02:57:37.504Z,12.20
2023-05-05T04:00:39.821Z,11.10
2023-05-05T04:03:06.878Z,11.10
2023-05-05T04:05:33.951Z,11.00
2023-05-05T04:08:00.950Z,10.90
2023-05-05T04:10:27.741Z,11.00
2023-05-05T04:12:54.752Z,11.00
2023-05-05T04:15:21.870Z,11.00
2023-05-05T04:17:48.824Z,11.00
2023-05-05T04:20:15.821Z,11.00
2023-05-05T04:22:42.831Z,11.10
2023-05-05T04:25:10.125Z,11.10
2023-05-05T04:27:37.015Z,11.20
2023-05-05T04:30:04.501Z,11.30
2023-05-05T04:32:31.586Z,11.30
2023-05-05T04:34:58.844Z,11.40
2023-05-05T04:37:25.898Z,11.40
2023-05-05T04:39:53.005Z,11.50
2023-05-05T04:42:19.940Z,11.50
2023-05-05T04:44:46.873Z,11.60
2023-05-05T04:47:14.643Z,11.70
2023-05-05T04:49:41.720Z,11.90
2023-05-05T04:52:08.851Z,12.00
2023-05-05T04:54:36.932Z,12.20
2023-05-05T04:57:04.148Z,12.30
2023-05-05T04:59:31.259Z,12.40
2023-05-05T05:01:58.116Z,12.60
2023-05-05T05:04:26.074Z,12.80
2023-05-05T05:06:53.103Z,13.00
2023-05-05T05:09:19.890Z,13.10
2023-05-05T05:11:46.758Z,13.30
2023-05-05T05:14:13.548Z,13.50
2023-05-05T05:16:40.415Z,13.60
2023-05-05T05:19:07.208Z,13.70
2023-05-05T05:21:33.985Z,13.80
2023-05-05T05:24:00.809Z,13.90
2023-05-05T05:26:27.758Z,14.00
2023-05-05T05:28:54.641Z,13.90
2023-05-05T05:31:21.422Z,13.80
2023-05-05T05:33:48.301Z,13.80
2023-05-05T05:36:15.324Z,13.90
2023-05-05T05:38:42.093Z,14.00
2023-05-05T05:41:08.872Z,14.00
2023-05-05T05:43:35.645Z,14.20
2023-05-05T05:46:02.513Z,14.30
2023-05-05T05:48:29.564Z,14.40
2023-05-05T05:50:57.089Z,14.60
2023-05-05T05:53:23.933Z,14.70
2023-05-05T05:55:50.796Z,14.90
2023-05-05T05:58:18.472Z,15.10
2023-05-05T06:00:45.402Z,15.30
2023-05-05T06:03:12.451Z,15.50
2023-05-05T06:05:39.655Z,15.80
2023-05-05T06:08:06.424Z,16.10
2023-05-05T06:10:33.716Z,16.50
2023-05-05T06:13:00.907Z,16.80
2023-05-05T06:15:27.860Z,17.10
2023-05-05T06:17:54.739Z,17.30
2023-05-05T06:20:21.722Z,17.60
2023-05-05T06:22:48.535Z,17.70
2023-05-05T06:25:15.648Z,17.90
2023-05-05T06:27:42.528Z,18.00
2023-05-05T06:30:10.445Z,17.80
2023-05-05T06:32:37.518Z,17.70
2023-05-05T06:35:04.597Z,17.60
2023-05-05T06:37:31.300Z,17.60
2023-05-05T06:39:58.038Z,17.40
2023-05-05T06:42:24.861Z,17.70
2023-05-05T06:44:51.800Z,17.90
2023-05-05T06:47:18.575Z,18.40
2023-05-05T06:49:45.365Z,18.70
2023-05-05T06:52:12.634Z,18.90
2023-05-05T06:54:39.639Z,19.00
2023-05-05T06:57:06.605Z,19.10
2023-05-05T06:59:33.558Z,19.10
2023-05-05T07:02:00.420Z,19.20
2023-05-05T07:04:27.244Z,19.20
2023-05-05T07:06:55.295Z,19.50
2023-05-05T07:09:22.158Z,19.60
2023-05-05T07:11:50.100Z,19.90
2023-05-05T07:14:20.615Z,20.30
2023-05-05T07:16:49.157Z,20.70
2023-05-05T07:19:16.780Z,20.70
2023-05-05T07:21:43.620Z,20.50
2023-05-05T07:24:10.506Z,20.50
2023-05-05T07:26:37.481Z,20.40
2023-05-05T07:29:07.103Z,20.40
2023-05-05T07:31:34.082Z,20.40
2023-05-05T07:34:01.055Z,20.30
2023-05-05T07:36:28.429Z,20.20
2023-05-05T07:38:55.415Z,20.10
2023-05-05T07:41:22.367Z,20.20
2023-05-05T07:43:49.222Z,20.30
2023-05-05T07:46:16.141Z,20.60
2023-05-05T07:48:43.315Z,20.60
2023-05-05T07:51:11.008Z,20.60
2023-05-05T07:53:38.013Z,20.80
2023-05-05T07:56:04.822Z,21.50
2023-05-05T07:58:31.750Z,21.40
2023-05-05T08:00:59.474Z,21.30
2023-05-05T08:03:26.500Z,21.20
2023-05-05T08:05:54.937Z,20.90
2023-05-05T08:08:24.905Z,20.60
2023-05-05T08:10:53.294Z,20.70
2023-05-05T08:13:20.486Z,20.80
2023-05-05T08:15:47.577Z,21.00
2023-05-05T08:18:16.097Z,20.90
2023-05-05T08:20:42.997Z,20.90
2023-05-05T08:23:09.846Z,21.00
2023-05-05T08:25:36.688Z,20.60
2023-05-05T08:28:03.716Z,20.50
2023-05-05T08:30:30.707Z,20.30
2023-05-05T08:32:59.989Z,20.20
2023-05-05T08:35:26.775Z,20.30
2023-05-05T08:37:53.545Z,20.20
2023-05-05T08:40:25.015Z,20.20
2023-05-05T08:42:51.825Z,19.90
2023-05-05T08:45:18.700Z,19.50
2023-05-05T08:47:45.647Z,19.30
2023-05-05T08:50:12.603Z,19.10
2023-05-05T08:52:44.162Z,18.90
2023-05-05T08:55:17.310Z,18.80
2023-05-05T08:57:54.722Z,18.70
2023-05-05T09:00:22.297Z,18.50
2023-05-05T09:02:49.973Z,18.40
2023-05-05T09:05:18.009Z,18.30
2023-05-05T09:07:45.172Z,18.00
2023-05-05T09:10:12.702Z,17.80
2023-05-05T09:12:40.768Z,17.50
2023-05-05T09:15:13.351Z,17.30
2023-05-05T09:17:43.669Z,17.10
2023-05-05T09:20:12.653Z,17.00
2023-05-05T09:22:47.977Z,16.90
2023-05-05T09:25:17.566Z,16.80
2023-05-05T09:27:47.792Z,16.80
2023-05-05T09:30:17.306Z,16.80
2023-05-05T09:32:46.539Z,16.60
2023-05-05T09:35:13.505Z,16.50
2023-05-05T09:37:40.625Z,16.30
2023-05-05T09:40:09.350Z,16.20
2023-05-05T09:42:37.912Z,16.20
2023-05-05T09:45:25.979Z,16.20
2023-05-05T09:47:58.782Z,16.30
2023-05-05T09:50:30.310Z,16.40
2023-05-05T09:52:59.870Z,16.50
2023-05-05T09:55:26.691Z,16.60
2023-05-05T09:57:53.724Z,16.70
2023-05-05T10:00:21.142Z,16.70
2023-05-05T10:02:49.031Z,16.70
2023-05-05T10:05:16.718Z,16.80
2023-05-05T10:07:45.541Z,16.80
2023-05-05T10:10:15.413Z,16.80
2023-05-05T10:12:42.681Z,16.90
2023-05-05T10:15:11.328Z,17.10
2023-05-05T10:20:19.246Z,17.70
2023-05-05T10:22:52.690Z,18.20
2023-05-05T10:25:31.533Z,19.80
2023-05-05T10:30:32.117Z,23.40
2023-05-05T10:33:27.280Z,25.00
2023-05-05T10:35:56.869Z,26.50
2023-05-05T10:38:26.792Z,27.30
2023-05-05T10:40:55.069Z,28.50
2023-05-05T10:43:22.075Z,29.70
2023-05-05T10:45:49.386Z,30.10
2023-05-05T10:48:25.097Z,29.70
2023-05-05T10:50:58.558Z,28.00
2023-05-05T10:53:32.347Z,28.50
2023-05-05T10:56:10.858Z,29.40
2023-05-05T10:58:55.512Z,28.70
2023-05-05T11:01:32.766Z,28.40
2023-05-05T11:04:18.544Z,28.50
2023-05-05T11:07:09.115Z,28.30
2023-05-05T11:09:54.319Z,27.60
2023-05-05T11:12:21.133Z,27.80
2023-05-05T11:14:47.985Z,27.50
2023-05-05T11:17:50.278Z,26.90
2023-05-05T11:20:17.371Z,27.00
2023-05-05T11:23:04.305Z,26.30
2023-05-05T11:25:40.906Z,26.30
2023-05-05T11:28:10.433Z,26.20
2023-05-05T11:30:58.124Z,26.00
2023-05-05T11:33:31.160Z,26.40
2023-05-05T11:36:05.728Z,27.00
2023-05-05T11:38:52.408Z,27.00
2023-05-05T11:41:27.384Z,26.80
2023-05-05T11:44:11.596Z,26.40
2023-05-05T11:46:41.725Z,26.50
2023-05-05T11:49:09.405Z,25.80
2023-05-05T11:51:36.495Z,25.20
2023-05-05T11:54:03.391Z,25.40
2023-05-05T11:56:30.214Z,25.60
2023-05-05T11:59:12.334Z,25.40
2023-05-05T12:01:42.588Z,25.00
2023-05-05T12:04:14.078Z,24.50
2023-05-05T12:06:41.384Z,24.80
2023-05-05T12:09:17.048Z,25.50
2023-05-05T12:11:50.139Z,25.50
2023-05-05T12:24:30.146Z,26.20
2023-05-05T12:27:08.565Z,25.70
2023-05-05T12:29:35.545Z,25.70
2023-05-05T12:32:02.404Z,25.80
2023-05-05T12:34:29.541Z,25.40
2023-05-05T12:36:56.444Z,25.30
2023-05-05T12:39:23.244Z,25.90
2023-05-05T12:41:50.496Z,26.10
2023-05-05T12:44:17.325Z,26.20
2023-05-05T12:46:46.277Z,26.40
2023-05-05T12:49:13.322Z,26.50
2023-05-05T12:51:53.809Z,26.80
2023-05-05T12:54:20.592Z,26.20
2023-05-05T12:56:48.278Z,26.10
2023-05-05T12:59:22.390Z,25.80
2023-05-05T13:01:51.578Z,25.40
2023-05-05T13:04:19.646Z,25.40
2023-05-05T13:06:48.124Z,25.20
2023-05-05T13:09:30.727Z,24.70
2023-05-05T13:11:57.889Z,25.00
2023-05-05T13:14:24.911Z,24.90
2023-05-05T13:16:52.813Z,25.20
2023-05-05T13:19:19.695Z,25.20
2023-05-05T13:21:46.671Z,25.20
2023-05-05T13:24:26.113Z,25.00
2023-05-05T13:26:58.356Z,24.60
2023-05-05T13:29:29.552Z,24.70
2023-05-05T13:31:58.159Z,24.40
2023-05-05T13:34:25.103Z,24.20
2023-05-05T13:36:52.050Z,24.10
2023-05-05T13:39:19.204Z,23.60
2023-05-05T13:41:46.221Z,23.60
2023-05-05T13:44:14.044Z,23.40
2023-05-05T13:46:42.532Z,23.30
2023-05-05T13:49:09.449Z,23.30
2023-05-05T13:51:37.075Z,23.40
2023-05-05T13:54:04.065Z,23.10
2023-05-05T13:56:30.981Z,23.30
2023-05-05T13:58:57.840Z,23.30
2023-05-05T14:01:24.762Z,23.40
2023-05-05T14:03:51.883Z,23.50
2023-05-05T14:06:19.431Z,23.60
2023-05-05T14:08:46.360Z,23.40
2023-05-05T14:11:13.878Z,23.30
2023-05-05T14:13:40.816Z,23.30
2023-05-05T14:16:07.792Z,23.60
2023-05-05T14:18:34.729Z,23.90
2023-05-05T14:21:02.160Z,23.90
2023-05-05T14:23:29.000Z,24.10
2023-05-05T14:25:55.828Z,24.40
2023-05-05T14:28:22.561Z,24.60
2023-05-05T14:30:49.366Z,25.00
2023-05-05T14:33:16.794Z,25.40
2023-05-05T14:35:43.670Z,25.40
2023-05-05T14:38:10.545Z,25.40
2023-05-05T14:40:37.312Z,25.20
2023-05-05T14:43:04.194Z,25.00
2023-05-05T14:45:31.767Z,24.80
2023-05-05T14:47:58.627Z,24.60
2023-05-05T14:50:25.557Z,24.40
2023-05-05T14:52:52.248Z,24.60
2023-05-05T14:55:19.210Z,24.70
2023-05-05T14:57:45.992Z,24.60
2023-05-05T15:00:13.302Z,24.40
2023-05-05T15:02:40.342Z,24.10
2023-05-05T15:05:08.202Z,23.80
2023-05-05T15:07:35.176Z,23.50
2023-05-05T15:10:02.110Z,23.30
2023-05-05T15:12:28.872Z,23.20
2023-05-05T15:14:55.689Z,23.20
2023-05-05T15:17:22.625Z,22.90
2023-05-05T15:19:49.602Z,22.80
2023-05-05T15:22:16.525Z,22.50
2023-05-05T15:24:43.321Z,22.40
2023-05-05T15:27:10.144Z,22.40
2023-05-05T15:29:37.030Z,22.30
2023-05-05T15:32:04.099Z,22.10
2023-05-05T15:34:30.950Z,22.00
2023-05-05T15:36:57.772Z,22.10
2023-05-05T15:39:24.604Z,22.10
2023-05-05T15:41:51.463Z,22.00
2023-05-05T15:44:18.333Z,21.90
2023-05-05T15:46:45.250Z,21.80
2023-05-05T15:49:12.105Z,21.70
2023-05-05T15:51:38.990Z,21.50
2023-05-05T15:54:05.799Z,21.40
2023-05-05T15:56:33.744Z,21.30
2023-05-05T15:59:01.671Z,21.20
2023-05-05T16:01:28.523Z,21.10
2023-05-05T16:03:55.292Z,21.00
2023-05-05T16:06:22.121Z,20.90
2023-05-05T16:08:51.748Z,20.80
2023-05-05T16:11:21.830Z,20.60
2023-05-05T16:13:49.359Z,20.50
2023-05-05T16:16:16.179Z,20.30
2023-05-05T16:18:43.067Z,20.10
2023-05-05T16:28:34.319Z,19.00
2023-05-05T16:31:02.283Z,18.70
2023-05-05T16:33:29.600Z,18.50
2023-05-05T16:35:56.637Z,18.40
2023-05-05T16:38:23.430Z,18.20
2023-05-05T16:40:50.507Z,18.00
2023-05-05T16:43:17.283Z,17.90
2023-05-05T16:45:44.086Z,17.70
2023-05-05T16:48:10.940Z,17.50
2023-05-05T16:50:37.774Z,17.30
2023-05-05T16:53:04.594Z,17.20
2023-05-05T16:55:31.526Z,17.10
2023-05-05T16:57:58.353Z,16.90
2023-05-05T17:00:25.172Z,16.60
2023-05-05T17:02:51.978Z,16.30
2023-05-05T17:05:18.913Z,15.80
2023-05-05T17:07:45.949Z,15.40
2023-05-05T17:10:12.948Z,15.10
2023-05-05T17:12:39.878Z,14.80
2023-05-05T17:15:07.994Z,14.70
2023-05-05T17:17:35.189Z,14.70
2023-05-05T17:20:04.680Z,14.50
2023-05-05T17:22:32.089Z,14.50
2023-05-05T17:24:58.980Z,14.50
2023-05-05T17:27:25.808Z,14.40
2023-05-05T17:29:53.708Z,14.30
2023-05-05T17:32:20.753Z,14.20
2023-05-05T17:34:48.114Z,14.10
2023-05-05T17:37:14.897Z,13.90
2023-05-05T17:39:42.732Z,13.90
2023-05-05T17:42:09.508Z,13.80
2023-05-05T17:44:37.335Z,13.80
2023-05-05T17:47:07.676Z,13.80
2023-05-05T17:49:34.930Z,13.70
2023-05-05T17:52:01.981Z,13.70
2023-05-05T17:54:28.996Z,13.70
2023-05-05T17:56:56.001Z,13.80
2023-05-05T17:59:24.088Z,13.80
2023-05-05T18:01:52.178Z,13.60
2023-05-05T18:04:19.377Z,13.70
2023-05-05T18:06:46.792Z,13.90
2023-05-05T18:09:13.888Z,13.90
2023-05-05T18:11:42.366Z,13.90
2023-05-05T18:14:10.781Z,13.90
2023-05-05T18:16:37.926Z,13.90
2023-05-05T18:19:05.085Z,13.90
2023-05-05T18:21:32.809Z,13.80
2023-05-05T18:24:15.825Z,13.90
2023-05-05T18:26:51.349Z,13.70
2023-05-05T18:29:20.113Z,13.80
2023-05-05T18:31:52.030Z,13.70
2023-05-05T18:34:20.755Z,13.70
2023-05-05T18:36:49.322Z,13.70
2023-05-05T18:39:16.335Z,13.60
2023-05-05T18:41:43.608Z,13.70
2023-05-05T18:44:10.802Z,13.80
2023-05-05T18:46:39.184Z,13.70
2023-05-05T18:49:06.361Z,13.70
2023-05-05T18:51:33.318Z,13.70
2023-05-05T18:54:01.807Z,13.80
2023-05-05T18:56:28.936Z,13.80
2023-05-05T18:58:56.108Z,13.70
2023-05-05T19:01:24.343Z,13.70
2023-05-05T19:03:52.673Z,13.70
2023-05-05T19:06:20.970Z,13.70
2023-05-05T19:08:48.100Z,13.70
2023-05-05T19:11:17.452Z,13.70
2023-05-05T19:13:44.780Z,13.70
2023-05-05T19:16:12.141Z,13.70
2023-05-05T19:18:40.267Z,13.70
2023-05-05T19:21:07.150Z,13.60
2023-05-05T19:23:36.085Z,13.70
2023-05-05T19:26:04.206Z,13.70
2023-05-05T19:28:31.460Z,13.70
2023-05-05T19:30:58.818Z,13.70
2023-05-05T19:33:25.850Z,13.60
2023-05-05T19:35:52.968Z,13.60
2023-05-05T19:38:19.973Z,13.60
2023-05-05T19:40:49.455Z,13.60
2023-05-05T19:43:16.327Z,13.50
2023-05-05T19:45:43.316Z,13.60
2023-05-05T19:48:11.367Z,13.50
2023-05-05T19:50:38.258Z,13.60
2023-05-05T19:53:05.313Z,13.70
2023-05-05T19:55:33.130Z,13.70
2023-05-05T19:58:00.101Z,13.70
2023-05-05T20:00:27.420Z,13.70
2023-05-05T20:02:54.611Z,13.70
2023-05-05T20:05:21.629Z,13.70
2023-05-05T20:07:50.533Z,13.70
2023-05-05T20:10:18.044Z,13.70
2023-05-05T20:12:48.485Z,13.70
2023-05-05T20:15:18.812Z,13.60
2023-05-05T20:17:47.328Z,13.60
2023-05-05T20:20:17.592Z,13.60
2023-05-05T20:22:45.744Z,13.60
2023-05-05T20:25:13.077Z,13.70
2023-05-05T20:27:39.898Z,13.70
2023-05-05T20:30:10.063Z,13.70
2023-05-05T20:32:37.203Z,13.70
2023-05-05T20:35:05.857Z,13.60
2023-05-05T20:37:32.698Z,13.70
2023-05-05T20:39:59.637Z,13.70
2023-05-05T20:42:28.014Z,13.70
2023-05-05T20:44:55.017Z,13.70
2023-05-05T20:47:22.067Z,13.70
2023-05-05T20:49:48.987Z,13.60
2023-05-05T20:52:15.898Z,13.60
2023-05-05T20:54:42.779Z,13.60
2023-05-05T20:57:10.291Z,13.60
2023-05-05T20:59:42.171Z,13.60
2023-05-05T21:02:09.856Z,13.60
2023-05-05T21:04:38.910Z,13.60
2023-05-05T21:07:05.768Z,13.50
2023-05-05T21:09:32.581Z,13.50
2023-05-05T21:11:59.595Z,13.50
2023-05-05T21:14:26.465Z,13.50
2023-05-05T21:16:53.399Z,13.50
2023-05-05T21:19:21.735Z,13.60
2023-05-05T21:21:49.489Z,13.50
2023-05-05T21:24:16.447Z,13.60
2023-05-05T21:26:44.352Z,13.60
2023-05-05T21:29:11.985Z,13.60
2023-05-05T21:31:39.358Z,13.60
2023-05-05T21:34:06.262Z,13.60
2023-05-05T21:36:34.014Z,13.60
2023-05-05T21:39:01.652Z,13.60
2023-05-05T21:41:28.761Z,13.60
2023-05-05T21:43:56.016Z,13.50
2023-05-05T21:46:23.298Z,13.60
2023-05-05T21:48:50.278Z,13.50
2023-05-05T21:51:17.507Z,13.50
2023-05-05T21:53:44.409Z,13.50
2023-05-05T21:56:11.234Z,13.50
2023-05-05T21:58:38.088Z,13.50
2023-05-05T22:01:05.082Z,13.50
2023-05-05T22:03:33.386Z,13.50
2023-05-05T22:06:00.234Z,13.40
2023-05-05T22:08:27.051Z,13.50
2023-05-05T22:10:53.924Z,13.40
2023-05-05T22:13:20.784Z,13.50
2023-05-05T22:15:51.165Z,13.50
2023-05-05T22:18:18.183Z,13.50
2023-05-05T22:20:45.040Z,13.50
2023-05-05T22:23:11.833Z,13.50
2023-05-05T22:25:38.674Z,13.50
2023-05-05T22:28:05.635Z,13.60
2023-05-05T22:30:32.585Z,13.60
2023-05-05T22:32:59.471Z,13.60
2023-05-05T22:35:26.256Z,13.60
2023-05-05T22:37:53.180Z,13.60
2023-05-05T22:40:19.907Z,13.60
2023-05-05T22:42:46.756Z,13.50
2023-05-05T22:45:13.806Z,13.60
2023-05-05T22:47:40.837Z,13.60
2023-05-05T22:50:08.461Z,13.60
2023-05-05T22:52:35.508Z,13.60
2023-05-05T22:55:02.568Z,13.60
2023-05-05T22:57:29.422Z,13.50
2023-05-05T22:59:56.273Z,13.60
2023-05-05T23:02:23.164Z,13.60
2023-05-05T23:04:51.137Z,13.60
2023-05-05T23:07:18.038Z,13.50
2023-05-05T23:09:45.805Z,13.50
2023-05-05T23:12:12.908Z,13.60
2023-05-05T23:14:39.818Z,13.60
2023-05-05T23:17:06.646Z,13.60
2023-05-05T23:19:34.743Z,13.60
2023-05-05T23:22:02.011Z,13.60
2023-05-05T23:24:29.263Z,13.60
2023-05-05T23:27:02.081Z,13.70
2023-05-05T23:29:29.389Z,13.60
2023-05-05T23:31:56.988Z,13.60
2023-05-05T23:34:24.123Z,13.40
2023-05-05T23:36:50.920Z,13.60
2023-05-05T23:39:17.986Z,13.50
2023-05-05T23:41:44.780Z,13.50
2023-05-05T23:44:11.603Z,13.60
2023-05-05T23:46:39.023Z,13.60
2023-05-05T23:49:05.826Z,13.60
2023-05-05T23:51:32.651Z,13.50
2023-05-05T23:53:59.539Z,13.50
2023-05-05T23:56:26.472Z,13.50
2023-05-05T23:58:53.842Z,13.50
